createdAt,value
2023-05-08T00:00:18.911Z,23.93
2023-05-08T00:02:51.656Z,23.93
2023-05-08T00:05:20.231Z,22.53
2023-05-08T00:07:48.465Z,22.37
2023-05-08T00:10:16.673Z,23.40
2023-05-08T00:12:46.219Z,29.90
2023-05-08T00:15:14.380Z,27.13
2023-05-08T00:17:48.144Z,26.53
2023-05-08T00:20:16.463Z,35.40
2023-05-08T00:22:50.276Z,31.83
2023-05-08T00:25:18.751Z,31.80
2023-05-08T00:27:48.312Z,28.10
2023-05-08T00:30:18.540Z,32.00
2023-05-08T00:32:47.065Z,41.07
2023-05-08T00:35:15.488Z,38.93
2023-05-08T00:37:43.819Z,29.20
2023-05-08T00:40:13.278Z,27.70
2023-05-08T00:42:41.734Z,27.93
2023-05-08T00:45:14.624Z,28.80
2023-05-08T00:47:43.456Z,34.23
2023-05-08T00:50:12.966Z,46.63
2023-05-08T00:52:44.069Z,43.03
2023-05-08T00:55:12.356Z,42.57
2023-05-08T00:57:44.269Z,41.30
2023-05-08T01:00:19.431Z,45.57
2023-05-08T01:02:48.495Z,43.20
2023-05-08T01:05:16.763Z,39.80
2023-05-08T01:07:45.214Z,33.20
2023-05-08T01:10:13.574Z,38.30
2023-05-08T01:13:06.398Z,32.70
2023-05-08T01:15:44.878Z,31.43
2023-05-08T01:18:21.195Z,32.13
2023-05-08T01:21:14.575Z,30.53
2023-05-08T01:24:37.704Z,31.37
2023-05-08T01:27:54.609Z,41.10
2023-05-08T01:31:02.869Z,33.17
2023-05-08T01:33:37.898Z,35.43
2023-05-08T01:36:22.227Z,29.70
2023-05-08T01:39:05.279Z,29.13
2023-05-08T01:41:42.242Z,31.57
2023-05-08T01:44:17.916Z,40.70
2023-05-08T01:46:51.300Z,43.10
2023-05-08T01:49:31.700Z,48.67
2023-05-08T01:52:04.688Z,46.33
2023-05-08T01:54:43.993Z,54.60
2023-05-08T01:57:13.616Z,50.07
2023-05-08T01:59:44.100Z,45.27
2023-05-08T02:02:13.263Z,48.97
2023-05-08T02:04:45.529Z,36.90
2023-05-08T02:07:13.988Z,33.47
2023-05-08T02:09:44.029Z,35.87
2023-05-08T02:12:14.434Z,36.37
2023-05-08T02:14:45.976Z,33.20
2023-05-08T02:17:17.731Z,32.13
2023-05-08T02:19:49.012Z,38.00
2023-05-08T02:22:19.633Z,37.70
2023-05-08T02:24:48.177Z,46.90
2023-05-08T02:27:17.590Z,38.60
2023-05-08T02:29:46.136Z,40.27
2023-05-08T02:32:17.280Z,47.77
2023-05-08T02:35:01.889Z,51.57
2023-05-08T02:37:32.181Z,45.10
2023-05-08T02:40:00.830Z,46.70
2023-05-08T02:42:29.124Z,41.00
2023-05-08T02:44:57.502Z,42.00
2023-05-08T02:47:31.087Z,43.17
2023-05-08T02:50:05.981Z,41.87
2023-05-08T02:52:44.147Z,47.50
2023-05-08T02:55:24.214Z,54.17
2023-05-08T02:58:04.095Z,55.30
2023-05-08T03:00:38.957Z,76.53
2023-05-08T03:03:16.576Z,68.13
2023-05-08T03:05:52.634Z,68.73
2023-05-08T03:08:27.147Z,65.23
2023-05-08T03:11:00.941Z,124.37
2023-05-08T03:13:33.307Z,87.43
2023-05-08T03:16:04.632Z,65.63
2023-05-08T03:18:37.138Z,83.97
2023-05-08T03:21:09.239Z,112.53
2023-05-08T03:23:40.407Z,170.17
2023-05-08T03:26:09.789Z,90.20
2023-05-08T03:28:39.482Z,136.33
2023-05-08T03:31:08.363Z,85.03
2023-05-08T03:33:39.844Z,147.50
2023-05-08T03:36:10.315Z,153.03
2023-05-08T03:38:38.592Z,152.97
2023-05-08T03:41:08.818Z,160.37
2023-05-08T03:43:38.989Z,177.87
2023-05-08T03:46:08.071Z,142.07
2023-05-08T03:48:36.996Z,132.17
2023-05-08T03:51:06.516Z,88.47
2023-05-08T03:53:38.588Z,89.50
2023-05-08T03:56:07.173Z,73.33
2023-05-08T03:58:42.700Z,93.53
2023-05-08T04:01:29.709Z,93.00
2023-05-08T04:04:08.113Z,73.23
2023-05-08T04:06:50.097Z,66.63
2023-05-08T04:09:35.598Z,67.97
2023-05-08T04:12:13.836Z,79.73
2023-05-08T04:14:49.574Z,65.70
2023-05-08T04:17:29.046Z,69.57
2023-05-08T04:20:06.017Z,59.87
2023-05-08T04:22:36.516Z,63.53
2023-05-08T04:25:10.287Z,56.33
2023-05-08T04:27:39.425Z,71.30
2023-05-08T04:30:10.871Z,64.13
2023-05-08T04:32:43.428Z,70.63
2023-05-08T04:35:14.469Z,67.83
2023-05-08T04:37:43.933Z,70.90
2023-05-08T04:40:14.559Z,71.13
2023-05-08T04:42:47.185Z,71.20
2023-05-08T04:45:20.218Z,59.10
2023-05-08T04:47:48.474Z,74.30
2023-05-08T04:50:17.353Z,65.67
2023-05-08T04:52:45.516Z,73.90
2023-05-08T04:55:15.148Z,73.67
2023-05-08T04:57:44.531Z,64.60
2023-05-08T05:00:15.012Z,72.40
2023-05-08T05:02:44.740Z,68.57
2023-05-08T05:05:13.348Z,61.33
2023-05-08T05:07:42.503Z,66.97
2023-05-08T05:10:11.973Z,53.33
2023-05-08T05:12:41.550Z,55.87
2023-05-08T05:15:11.680Z,55.33
2023-05-08T05:17:41.029Z,55.30
2023-05-08T05:20:12.264Z,64.47
2023-05-08T05:22:40.747Z,71.20
2023-05-08T05:25:11.179Z,61.67
2023-05-08T05:27:41.452Z,66.70
2023-05-08T05:30:10.939Z,54.10
2023-05-08T05:32:39.520Z,58.93
2023-05-08T05:35:12.115Z,59.40
2023-05-08T05:37:41.308Z,57.80
2023-05-08T05:40:13.414Z,60.10
2023-05-08T05:42:44.343Z,80.03
2023-05-08T05:45:13.435Z,88.67
2023-05-08T05:47:50.506Z,80.93
2023-05-08T05:50:22.561Z,72.40
2023-05-08T05:52:51.078Z,67.17
2023-05-08T05:55:19.432Z,70.37
2023-05-08T05:57:50.006Z,71.97
2023-05-08T06:00:19.516Z,71.80
2023-05-08T06:02:54.704Z,69.67
2023-05-08T06:05:23.160Z,79.83
2023-05-08T06:07:51.413Z,66.47
2023-05-08T06:10:20.007Z,80.20
2023-05-08T06:12:49.579Z,79.70
2023-05-08T06:15:18.494Z,95.50
2023-05-08T06:17:48.123Z,97.23
2023-05-08T06:20:16.480Z,95.90
2023-05-08T06:22:44.716Z,92.70
2023-05-08T06:25:13.154Z,84.27
2023-05-08T06:27:41.494Z,91.13
2023-05-08T06:30:12.754Z,85.70
2023-05-08T06:32:41.072Z,101.40
2023-05-08T06:35:12.302Z,102.37
2023-05-08T06:37:40.695Z,102.40
2023-05-08T06:40:12.529Z,99.90
2023-05-08T06:42:42.085Z,106.37
2023-05-08T06:45:12.576Z,105.47
2023-05-08T06:47:41.226Z,106.93
2023-05-08T06:50:10.614Z,103.67
2023-05-08T06:52:40.781Z,105.00
2023-05-08T06:55:09.980Z,105.67
2023-05-08T06:57:43.389Z,107.53
2023-05-08T07:00:15.002Z,106.70
2023-05-08T07:02:43.263Z,112.20
2023-05-08T07:05:11.853Z,105.60
2023-05-08T07:07:40.248Z,105.87
2023-05-08T07:10:09.597Z,102.30
2023-05-08T07:12:38.112Z,108.57
2023-05-08T07:15:17.789Z,104.13
2023-05-08T07:17:54.920Z,103.33
2023-05-08T07:20:24.425Z,102.70
2023-05-08T07:22:52.863Z,107.40
2023-05-08T07:25:21.025Z,107.27
2023-05-08T07:27:49.430Z,97.60
2023-05-08T07:30:17.885Z,95.80
2023-05-08T07:32:46.127Z,92.57
2023-05-08T07:35:15.839Z,96.53
2023-05-08T07:37:44.679Z,90.03
2023-05-08T07:40:13.279Z,91.43
2023-05-08T07:42:42.783Z,90.03
2023-05-08T07:45:13.992Z,89.90
2023-05-08T07:47:51.409Z,83.13
2023-05-08T07:50:22.276Z,83.90
2023-05-08T07:52:50.995Z,76.90
2023-05-08T07:55:22.599Z,85.60
2023-05-08T07:57:50.912Z,76.00
2023-05-08T08:00:22.800Z,77.27
2023-05-08T08:02:53.215Z,73.53
2023-05-08T08:05:23.187Z,74.57
2023-05-08T08:07:56.941Z,73.00
2023-05-08T08:10:35.814Z,66.20
2023-05-08T08:13:16.039Z,65.63
2023-05-08T08:15:44.270Z,67.50
2023-05-08T08:18:13.033Z,66.50
2023-05-08T08:20:42.710Z,67.03
2023-05-08T08:23:10.933Z,69.53
2023-05-08T08:25:42.494Z,67.70
2023-05-08T08:28:16.302Z,63.30
2023-05-08T08:30:44.461Z,66.00
2023-05-08T08:33:12.783Z,67.33
2023-05-08T08:35:45.139Z,58.90
2023-05-08T08:38:13.516Z,56.40
2023-05-08T08:40:41.895Z,57.33
2023-05-08T08:43:10.943Z,56.70
2023-05-08T08:45:39.614Z,54.90
2023-05-08T08:48:12.643Z,56.97
2023-05-08T08:50:47.255Z,56.67
2023-05-08T08:53:25.586Z,56.43
2023-05-08T08:55:57.057Z,55.97
2023-05-08T08:58:36.526Z,54.00
2023-05-08T09:01:08.957Z,56.97
2023-05-08T09:03:37.393Z,53.53
2023-05-08T09:06:07.764Z,57.80
2023-05-08T09:08:36.366Z,54.20
2023-05-08T09:11:06.924Z,55.67
2023-05-08T09:13:35.293Z,52.67
2023-05-08T09:16:03.881Z,51.63
2023-05-08T09:18:32.323Z,52.70
2023-05-08T09:21:01.821Z,51.27
2023-05-08T09:23:31.569Z,49.73
2023-05-08T09:26:01.758Z,52.07
2023-05-08T09:28:36.078Z,51.40
2023-05-08T09:31:10.100Z,54.70
2023-05-08T09:33:49.254Z,52.40
2023-05-08T09:36:29.408Z,52.40
2023-05-08T09:39:02.766Z,52.63
2023-05-08T09:41:35.488Z,52.60
2023-05-08T09:44:07.029Z,50.93
2023-05-08T09:46:36.163Z,51.00
2023-05-08T09:49:07.764Z,51.97
2023-05-08T09:51:37.669Z,49.10
2023-05-08T09:54:25.386Z,50.87
2023-05-08T09:56:54.471Z,46.33
2023-05-08T09:59:30.839Z,46.80
2023-05-08T10:02:11.021Z,42.23
2023-05-08T10:04:42.305Z,43.37
2023-05-08T10:07:10.466Z,48.10
2023-05-08T10:09:50.319Z,48.80
2023-05-08T10:12:22.253Z,50.80
2023-05-08T10:14:50.774Z,46.93
2023-05-08T10:17:31.536Z,43.33
2023-05-08T10:20:04.904Z,43.00
2023-05-08T10:22:37.976Z,40.73
2023-05-08T10:25:17.228Z,39.53
2023-05-08T10:27:54.921Z,38.90
2023-05-08T10:30:28.221Z,35.07
2023-05-08T10:32:59.348Z,36.43
2023-05-08T10:35:28.361Z,39.57
2023-05-08T10:37:58.230Z,37.57
2023-05-08T10:40:28.022Z,38.90
2023-05-08T10:42:58.524Z,38.47
2023-05-08T10:45:29.773Z,33.73
2023-05-08T10:48:09.775Z,34.87
2023-05-08T10:50:56.471Z,37.60
2023-05-08T10:53:37.853Z,34.37
2023-05-08T10:56:09.493Z,35.57
2023-05-08T10:58:39.492Z,37.20
2023-05-08T11:01:20.178Z,37.53
2023-05-08T11:03:51.974Z,37.60
2023-05-08T11:06:45.969Z,33.70
2023-05-08T11:09:25.377Z,36.87
2023-05-08T11:12:09.228Z,34.93
2023-05-08T11:14:43.493Z,36.63
2023-05-08T11:17:13.804Z,36.00
2023-05-08T11:20:02.235Z,33.37
2023-05-08T11:22:33.214Z,32.47
2023-05-08T11:25:05.410Z,32.00
2023-05-08T11:27:41.522Z,32.90
2023-05-08T11:30:35.913Z,32.53
2023-05-08T11:33:30.710Z,33.33
2023-05-08T11:36:02.530Z,31.70
2023-05-08T11:38:38.145Z,32.63
2023-05-08T11:41:08.730Z,27.70
2023-05-08T11:44:20.953Z,27.53
2023-05-08T11:46:53.684Z,34.50
2023-05-08T11:49:27.127Z,39.30
2023-05-08T11:52:00.803Z,38.77
2023-05-08T11:54:33.658Z,38.00
2023-05-08T11:57:02.858Z,39.30
2023-05-08T11:59:37.719Z,39.50
2023-05-08T12:02:09.196Z,38.57
2023-05-08T12:04:50.986Z,38.70
2023-05-08T12:07:20.628Z,32.33
2023-05-08T12:09:53.526Z,34.53
2023-05-08T12:12:26.572Z,31.77
2023-05-08T12:14:56.393Z,30.43
2023-05-08T12:17:24.879Z,30.87
2023-05-08T12:19:56.628Z,31.80
2023-05-08T12:22:26.388Z,29.57
2023-05-08T12:24:55.835Z,29.80
2023-05-08T12:27:26.445Z,30.87
2023-05-08T12:29:56.043Z,31.27
2023-05-08T12:32:24.929Z,29.10
2023-05-08T12:34:56.684Z,30.57
2023-05-08T12:37:27.980Z,30.80
2023-05-08T12:39:56.488Z,30.40
2023-05-08T12:42:40.709Z,31.30
2023-05-08T12:45:20.787Z,33.40
2023-05-08T12:47:50.663Z,31.20
2023-05-08T12:50:25.225Z,31.50
2023-05-08T12:52:54.344Z,32.10
2023-05-08T12:55:27.311Z,33.83
2023-05-08T12:58:04.326Z,32.20
2023-05-08T13:00:39.324Z,31.03
2023-05-08T13:03:09.102Z,37.47
2023-05-08T13:05:39.660Z,43.67
2023-05-08T13:08:10.859Z,47.60
2023-05-08T13:10:50.149Z,51.23
2023-05-08T13:13:20.789Z,56.10
2023-05-08T13:15:52.120Z,56.43
2023-05-08T13:18:22.570Z,64.67
2023-05-08T13:20:50.820Z,62.93
2023-05-08T13:23:18.995Z,63.93
2023-05-08T13:25:47.311Z,72.87
2023-05-08T13:28:15.866Z,73.43
2023-05-08T13:30:45.156Z,73.10
2023-05-08T13:33:14.737Z,73.90
2023-05-08T13:35:44.863Z,80.87
2023-05-08T13:38:13.175Z,73.80
2023-05-08T13:40:41.565Z,72.00
2023-05-08T13:43:09.841Z,70.20
2023-05-08T13:45:40.916Z,68.63
2023-05-08T13:48:09.219Z,64.33
2023-05-08T13:50:42.062Z,70.10
2023-05-08T13:53:11.413Z,64.10
2023-05-08T13:55:39.872Z,63.20
2023-05-08T13:58:08.187Z,59.00
2023-05-08T14:00:36.532Z,56.83
2023-05-08T14:03:08.914Z,60.50
2023-05-08T14:05:38.570Z,61.07
2023-05-08T14:08:06.769Z,58.07
2023-05-08T14:10:35.018Z,58.50
2023-05-08T14:13:03.280Z,63.53
2023-05-08T14:15:37.092Z,59.87
2023-05-08T14:18:06.432Z,59.70
2023-05-08T14:20:34.670Z,59.10
2023-05-08T14:23:04.260Z,59.60
2023-05-08T14:25:32.417Z,56.30
2023-05-08T14:28:00.661Z,52.77
2023-05-08T14:30:30.896Z,54.17
2023-05-08T14:33:02.123Z,50.27
2023-05-08T14:35:30.404Z,52.33
2023-05-08T14:37:58.831Z,50.03
2023-05-08T14:40:31.485Z,50.47
2023-05-08T14:42:59.750Z,52.00
2023-05-08T14:45:27.997Z,51.23
2023-05-08T14:47:56.179Z,48.27
2023-05-08T14:50:24.679Z,49.80
2023-05-08T14:52:52.906Z,45.83
2023-05-08T14:55:22.087Z,44.37
2023-05-08T14:57:52.817Z,45.43
2023-05-08T15:00:21.535Z,42.97
2023-05-08T15:02:54.341Z,42.53
2023-05-08T15:05:22.849Z,40.50
2023-05-08T15:07:55.815Z,40.23
2023-05-08T15:10:24.321Z,40.80
2023-05-08T15:12:54.041Z,36.70
2023-05-08T15:15:22.481Z,37.80
2023-05-08T15:17:50.713Z,36.30
2023-05-08T15:20:21.279Z,34.10
2023-05-08T15:22:50.806Z,33.43
2023-05-08T15:25:19.407Z,31.20
2023-05-08T15:27:53.806Z,32.57
2023-05-08T15:30:24.965Z,30.50
2023-05-08T15:32:56.336Z,30.80
2023-05-08T15:35:27.343Z,29.27
2023-05-08T15:37:58.634Z,29.10
2023-05-08T15:40:26.847Z,27.07
2023-05-08T15:42:55.113Z,26.73
2023-05-08T15:45:25.095Z,25.40
2023-05-08T15:47:53.293Z,28.40
2023-05-08T15:50:22.289Z,25.43
2023-05-08T15:52:55.569Z,27.23
2023-05-08T15:55:23.957Z,25.33
2023-05-08T15:57:56.622Z,26.10
2023-05-08T16:00:43.972Z,25.47
2023-05-08T16:03:16.566Z,25.60
2023-05-08T16:05:44.897Z,23.37
2023-05-08T16:08:15.043Z,25.00
2023-05-08T16:10:43.724Z,26.53
2023-05-08T16:13:24.073Z,25.63
2023-05-08T16:15:56.636Z,28.27
2023-05-08T16:18:29.530Z,29.83
2023-05-08T16:20:57.929Z,30.37
2023-05-08T16:23:26.404Z,34.93
2023-05-08T16:25:54.821Z,37.13
2023-05-08T16:28:23.008Z,36.63
2023-05-08T16:30:51.265Z,39.40
2023-05-08T16:33:21.339Z,39.23
2023-05-08T16:35:49.713Z,41.10
2023-05-08T16:38:20.470Z,43.53
2023-05-08T16:40:50.655Z,40.70
2023-05-08T16:43:19.016Z,44.00
2023-05-08T16:45:47.359Z,43.87
2023-05-08T16:48:15.527Z,42.23
2023-05-08T16:50:45.127Z,45.73
2023-05-08T16:53:13.336Z,44.77
2023-05-08T16:55:41.625Z,44.90
2023-05-08T16:58:10.205Z,43.93
2023-05-08T17:00:38.676Z,45.43
2023-05-08T17:03:09.867Z,52.17
2023-05-08T17:05:41.027Z,50.63
2023-05-08T17:08:11.828Z,49.30
2023-05-08T17:10:41.372Z,51.47
2023-05-08T17:13:15.572Z,43.97
2023-05-08T17:15:46.907Z,46.17
2023-05-08T17:18:15.192Z,43.50
2023-05-08T17:20:43.419Z,42.53
2023-05-08T17:23:13.156Z,39.90
2023-05-08T17:25:41.423Z,38.07
2023-05-08T17:28:09.610Z,37.87
2023-05-08T17:30:40.294Z,36.93
2023-05-08T17:33:11.336Z,35.63
2023-05-08T17:35:42.183Z,34.50
2023-05-08T17:38:16.985Z,36.40
2023-05-08T17:40:46.654Z,35.70
2023-05-08T17:43:14.904Z,38.20
2023-05-08T17:45:48.318Z,36.93
2023-05-08T17:48:18.948Z,36.83
2023-05-08T17:50:47.159Z,38.13
2023-05-08T17:53:20.055Z,38.90
2023-05-08T17:55:50.868Z,37.27
2023-05-08T17:58:19.047Z,37.47
2023-05-08T18:00:47.186Z,37.67
2023-05-08T18:03:15.862Z,38.03
2023-05-08T18:05:45.936Z,38.03
2023-05-08T18:08:17.408Z,39.63
2023-05-08T18:10:47.548Z,40.37
2023-05-08T18:13:18.268Z,38.80
2023-05-08T18:15:49.625Z,38.20
2023-05-08T18:18:20.542Z,38.53
2023-05-08T18:20:48.730Z,37.20
2023-05-08T18:23:18.361Z,36.30
2023-05-08T18:25:49.582Z,34.20
2023-05-08T18:28:17.848Z,34.10
2023-05-08T18:30:46.146Z,33.93
2023-05-08T18:33:14.430Z,31.60
2023-05-08T18:35:42.539Z,33.47
2023-05-08T18:38:13.814Z,32.03
2023-05-08T18:40:44.839Z,33.10
2023-05-08T18:43:15.937Z,31.53
2023-05-08T18:45:44.127Z,32.13
2023-05-08T18:48:14.579Z,32.97
2023-05-08T18:50:42.783Z,30.80
2023-05-08T18:53:10.971Z,32.10
2023-05-08T18:55:40.709Z,30.57
2023-05-08T18:58:13.629Z,31.80
2023-05-08T19:00:42.131Z,30.63
2023-05-08T19:03:14.969Z,32.67
2023-05-08T19:05:43.310Z,31.50
2023-05-08T19:08:15.749Z,31.90
2023-05-08T19:10:44.045Z,30.53
2023-05-08T19:13:14.423Z,32.67
2023-05-08T19:15:54.145Z,31.63
2023-05-08T19:18:26.970Z,31.90
2023-05-08T19:20:55.191Z,31.50
2023-05-08T19:23:23.646Z,31.10
2023-05-08T19:25:52.879Z,30.30
2023-05-08T19:28:27.774Z,31.60
2023-05-08T19:30:55.977Z,33.80
2023-05-08T19:33:24.348Z,33.17
2023-05-08T19:35:52.513Z,30.73
2023-05-08T19:38:23.652Z,32.47
2023-05-08T19:40:56.296Z,29.53
2023-05-08T19:43:27.486Z,33.80
2023-05-08T19:45:56.844Z,33.27
2023-05-08T19:48:25.295Z,34.23
2023-05-08T19:51:00.301Z,32.17
2023-05-08T19:53:31.384Z,32.43
2023-05-08T19:55:59.632Z,33.70
2023-05-08T19:58:29.219Z,33.10
2023-05-08T20:00:57.450Z,31.77
2023-05-08T20:03:25.812Z,30.80
2023-05-08T20:05:54.909Z,35.63
2023-05-08T20:08:23.150Z,32.30
2023-05-08T20:10:51.519Z,31.47
2023-05-08T20:13:19.916Z,33.50
2023-05-08T20:15:54.081Z,33.57
2023-05-08T20:18:24.383Z,34.20
2023-05-08T20:20:52.588Z,32.80
2023-05-08T20:23:20.762Z,32.90
2023-05-08T20:25:48.984Z,31.83
2023-05-08T20:28:22.268Z,32.10
2023-05-08T20:30:52.753Z,32.83
2023-05-08T20:33:22.377Z,35.60
2023-05-08T20:35:56.619Z,34.80
2023-05-08T20:38:24.876Z,34.57
2023-05-08T20:41:00.128Z,35.00
2023-05-08T20:43:29.338Z,33.87
2023-05-08T20:45:59.102Z,31.03
2023-05-08T20:48:27.550Z,32.80
2023-05-08T20:50:57.620Z,31.63
2023-05-08T20:53:32.045Z,30.43
2023-05-08T20:56:18.642Z,31.43
2023-05-08T20:58:49.945Z,29.47
2023-05-08T21:01:23.132Z,29.03
2023-05-08T21:03:51.420Z,28.67
2023-05-08T21:06:22.444Z,28.40
2023-05-08T21:08:57.829Z,29.10
2023-05-08T21:11:27.837Z,29.33
2023-05-08T21:13:57.846Z,28.10
2023-05-08T21:16:28.966Z,28.87
2023-05-08T21:19:09.841Z,27.67
2023-05-08T21:21:39.021Z,27.87
2023-05-08T21:24:09.857Z,27.37
2023-05-08T21:26:38.031Z,26.60
2023-05-08T21:29:06.397Z,29.63
2023-05-08T21:31:36.371Z,27.23
2023-05-08T21:34:15.035Z,27.30
2023-05-08T21:36:43.443Z,27.90
2023-05-08T21:39:11.611Z,27.73
2023-05-08T21:41:39.797Z,27.67
2023-05-08T21:44:08.796Z,26.70
2023-05-08T21:46:39.903Z,27.07
2023-05-08T21:49:08.352Z,27.10
2023-05-08T21:51:41.840Z,31.73
2023-05-08T21:54:14.162Z,32.77
2023-05-08T21:56:42.380Z,32.03
2023-05-08T21:59:10.562Z,30.30
2023-05-08T22:01:44.841Z,31.97
2023-05-08T22:04:13.055Z,31.13
2023-05-08T22:06:49.059Z,31.77
2023-05-08T22:09:18.828Z,29.60
2023-05-08T22:11:47.012Z,31.10
2023-05-08T22:14:23.990Z,29.27
2023-05-08T22:16:59.075Z,28.43
2023-05-08T22:19:30.057Z,28.50
2023-05-08T22:21:59.587Z,27.23
2023-05-08T22:24:28.146Z,26.03
2023-05-08T22:26:56.345Z,25.07
2023-05-08T22:29:27.911Z,24.13
2023-05-08T22:32:00.282Z,24.50
2023-05-08T22:34:28.465Z,24.80
2023-05-08T22:36:58.928Z,26.00
2023-05-08T22:39:29.700Z,27.07
2023-05-08T22:42:00.355Z,29.47
2023-05-08T22:44:31.706Z,29.13
2023-05-08T22:47:04.404Z,27.77
2023-05-08T22:49:35.300Z,28.13
2023-05-08T22:52:08.288Z,28.40
2023-05-08T22:54:36.779Z,26.50
2023-05-08T22:57:05.196Z,25.57
2023-05-08T22:59:38.582Z,27.60
2023-05-08T23:02:09.760Z,28.80
2023-05-08T23:04:37.975Z,27.50
2023-05-08T23:07:06.934Z,27.77
2023-05-08T23:09:37.657Z,27.77
2023-05-08T23:12:11.367Z,28.23
2023-05-08T23:14:39.487Z,28.40
2023-05-08T23:17:15.115Z,26.87
2023-05-08T23:19:44.819Z,29.40
2023-05-08T23:22:13.097Z,28.47
2023-05-08T23:24:46.283Z,28.93
2023-05-08T23:27:17.204Z,29.30
2023-05-08T23:29:47.228Z,29.97
2023-05-08T23:32:24.741Z,29.10
2023-05-08T23:34:52.994Z,27.83
2023-05-08T23:37:25.926Z,28.33
2023-05-08T23:39:56.493Z,29.40
2023-05-08T23:42:24.654Z,29.50
2023-05-08T23:44:59.344Z,27.70
2023-05-08T23:47:29.993Z,28.27
2023-05-08T23:50:00.219Z,26.13
2023-05-08T23:52:31.416Z,26.13
2023-05-08T23:55:04.857Z,24.50
2023-05-08T23:57:36.059Z,26.07
